Decoded Metar for CBBC (BELLA BELLA in BC, CANADA) (IATA:N/A) | Meteo·Mobile Aviation Weather
aviador You're here:

CBBC Decoded Metar

BELLA BELLA in BC, CANADA
Report Time2018-10-18 11:00:00
UTC Time2018-10-18 11:35:10
Flight Rules vfr VFR
WindCalm
Visibility9999 m
Phenomena:N/A
Clouds:Overcast 070 Hf
Ceiling7,000 ft
Temp09°C (ISA -6)
Dew Point09°C (100% RH)
AAT8.8°C
QNH1021 hPa
Density Alt-659 ft
Elevation141 ft
Report Wrong Elevation
Raw Report
METAR CBBC 181100Z AUTO 00000KT 9SM OVC070 09/09 A3015 RMK SLP213=

Extra information for CBBC:More info

Metar Taf Metar & Taf Last 4 Metars F.Rules Stats Wind Profile Meteogram Temp Stats Airport Information Weather charts Add Link Nearby VenuesMetar ALERT Operation Metar Decoded Social comments